createdAt,value
2018-09-10T00:01:54.110Z,8.23
2018-09-10T00:04:22.864Z,8.30
2018-09-10T00:06:51.631Z,8.80
2018-09-10T00:09:20.324Z,8.20
2018-09-10T00:11:49.008Z,9.23
2018-09-10T00:14:17.674Z,8.57
2018-09-10T00:16:46.366Z,8.43
2018-09-10T00:19:15.045Z,9.03
2018-09-10T00:21:43.718Z,9.57
2018-09-10T00:24:12.344Z,9.30
2018-09-10T00:26:41.091Z,8.90
2018-09-10T00:29:09.774Z,9.57
2018-09-10T00:31:38.438Z,8.87
2018-09-10T00:34:07.168Z,9.33
2018-09-10T00:36:35.843Z,9.13
2018-09-10T00:39:07.212Z,9.13
2018-09-10T00:41:35.897Z,9.23
2018-09-10T00:44:04.582Z,9.53
2018-09-10T00:46:33.283Z,9.30
2018-09-10T00:49:02.040Z,9.37
2018-09-10T00:51:30.734Z,9.63
2018-09-10T00:53:59.456Z,8.80
2018-09-10T00:56:28.116Z,9.63
2018-09-10T00:58:56.841Z,9.77
2018-09-10T01:01:25.568Z,10.33
2018-09-10T01:03:54.304Z,9.17
2018-09-10T01:06:22.949Z,9.60
2018-09-10T01:08:51.687Z,9.03
2018-09-10T01:11:20.364Z,9.60
2018-09-10T01:13:49.572Z,9.87
2018-09-10T01:16:18.270Z,9.83
2018-09-10T01:18:46.892Z,9.77
2018-09-10T01:21:19.292Z,9.77
2018-09-10T01:23:47.983Z,10.20
2018-09-10T01:26:16.663Z,10.33
2018-09-10T01:28:45.334Z,10.53
2018-09-10T01:31:14.034Z,9.47
2018-09-10T01:33:47.969Z,10.30
2018-09-10T01:36:16.711Z,9.73
2018-09-10T01:38:45.360Z,10.20
2018-09-10T01:41:14.029Z,10.00
2018-09-10T01:43:42.713Z,10.50
2018-09-10T01:46:11.447Z,10.10
2018-09-10T01:48:40.216Z,10.80
2018-09-10T01:51:08.928Z,10.10
2018-09-10T01:53:37.587Z,9.93
2018-09-10T01:56:06.626Z,11.07
2018-09-10T01:58:35.300Z,10.67
2018-09-10T02:01:03.964Z,10.70
2018-09-10T02:03:32.656Z,11.67
2018-09-10T02:06:01.350Z,11.40
2018-09-10T02:08:30.014Z,11.17
2018-09-10T02:10:59.271Z,11.50
2018-09-10T02:13:27.922Z,11.20
2018-09-10T02:15:56.643Z,10.33
2018-09-10T02:18:25.339Z,11.07
2018-09-10T02:20:54.018Z,11.73
2018-09-10T02:23:22.710Z,10.67
2018-09-10T02:25:51.347Z,11.30
2018-09-10T02:28:20.067Z,10.70
2018-09-10T02:30:48.770Z,11.40
2018-09-10T02:33:17.440Z,10.77
2018-09-10T02:35:46.154Z,11.50
2018-09-10T02:38:14.885Z,11.77
2018-09-10T02:40:43.540Z,11.83
2018-09-10T02:43:12.290Z,12.23
2018-09-10T02:45:40.996Z,11.53
2018-09-10T02:48:09.707Z,12.47
2018-09-10T02:50:38.372Z,11.50
2018-09-10T02:53:07.029Z,11.87
2018-09-10T02:55:35.658Z,11.67
2018-09-10T02:58:04.916Z,12.00
2018-09-10T03:00:33.628Z,11.77
2018-09-10T03:03:02.320Z,13.40
2018-09-10T03:05:31.008Z,11.77
2018-09-10T03:07:59.691Z,12.90
2018-09-10T03:10:28.358Z,13.20
2018-09-10T03:12:57.094Z,12.30
2018-09-10T03:15:25.828Z,12.23
2018-09-10T03:17:54.477Z,12.47
2018-09-10T03:20:23.234Z,13.33
2018-09-10T03:22:51.845Z,11.90
2018-09-10T03:25:20.522Z,13.10
2018-09-10T03:27:49.216Z,13.30
2018-09-10T03:30:17.870Z,12.87
2018-09-10T03:32:46.578Z,12.10
2018-09-10T03:35:15.255Z,13.03
2018-09-10T03:37:43.996Z,13.23
2018-09-10T03:40:12.675Z,12.90
2018-09-10T03:42:41.331Z,13.27
2018-09-10T03:45:09.978Z,13.53
2018-09-10T03:47:38.679Z,13.07
2018-09-10T03:50:07.411Z,13.03
2018-09-10T03:52:36.114Z,12.57
2018-09-10T03:55:04.888Z,13.40
2018-09-10T03:57:33.584Z,13.70
2018-09-10T04:00:02.270Z,12.93
2018-09-10T04:02:30.934Z,12.87
2018-09-10T04:04:59.704Z,13.77
2018-09-10T04:07:28.422Z,13.90
2018-09-10T04:09:57.091Z,11.90
2018-09-10T04:12:25.743Z,14.53
2018-09-10T04:14:54.460Z,13.37
2018-09-10T04:17:23.215Z,13.27
2018-09-10T04:19:56.176Z,12.93
2018-09-10T04:22:24.861Z,13.60
2018-09-10T04:24:53.561Z,13.53
2018-09-10T04:27:22.252Z,14.07
2018-09-10T04:29:50.958Z,14.77
2018-09-10T04:32:19.628Z,13.37
2018-09-10T04:34:48.330Z,13.70
2018-09-10T04:37:17.075Z,14.93
2018-09-10T04:39:45.772Z,13.57
2018-09-10T04:42:14.557Z,14.93
2018-09-10T04:44:43.244Z,14.87
2018-09-10T04:47:11.977Z,15.23
2018-09-10T04:49:40.674Z,15.20
2018-09-10T04:52:09.335Z,14.17
2018-09-10T04:54:38.005Z,14.17
2018-09-10T04:57:06.709Z,14.70
2018-09-10T04:59:35.410Z,13.87
2018-09-10T05:02:04.116Z,13.77
2018-09-10T05:04:32.835Z,14.27
2018-09-10T05:07:01.473Z,14.93
2018-09-10T05:09:30.308Z,14.60
2018-09-10T05:11:58.972Z,13.60
2018-09-10T05:14:27.680Z,13.73
2018-09-10T05:16:56.565Z,14.17
2018-09-10T05:19:25.216Z,14.10
2018-09-10T05:21:53.962Z,14.40
2018-09-10T05:24:22.638Z,14.77
2018-09-10T05:26:51.324Z,15.07
2018-09-10T05:29:20.007Z,15.33
2018-09-10T05:31:48.711Z,14.40
2018-09-10T05:34:17.323Z,14.27
2018-09-10T05:36:46.199Z,13.83
2018-09-10T05:39:15.678Z,13.87
2018-09-10T05:41:44.492Z,15.10
2018-09-10T05:44:13.142Z,13.47
2018-09-10T05:46:41.826Z,13.03
2018-09-10T05:49:10.488Z,13.67
2018-09-10T05:51:39.211Z,14.73
2018-09-10T05:54:07.895Z,14.20
2018-09-10T05:56:36.560Z,13.97
2018-09-10T05:59:05.267Z,13.80
2018-09-10T06:01:33.966Z,13.43
2018-09-10T06:04:02.664Z,12.47
2018-09-10T06:06:31.348Z,13.20
2018-09-10T06:09:00.013Z,12.60
2018-09-10T06:11:28.710Z,12.53
2018-09-10T06:13:57.431Z,12.20
2018-09-10T06:16:26.108Z,12.27
2018-09-10T06:18:54.760Z,12.47
2018-09-10T06:21:23.482Z,11.97
2018-09-10T06:23:52.135Z,12.00
2018-09-10T06:26:20.936Z,12.23
2018-09-10T06:28:49.645Z,12.83
2018-09-10T06:31:18.318Z,10.87
2018-09-10T06:33:46.951Z,10.97
2018-09-10T06:36:15.663Z,10.53
2018-09-10T06:38:44.396Z,10.63
2018-09-10T06:41:13.035Z,10.90
2018-09-10T06:43:41.741Z,10.37
2018-09-10T06:46:10.704Z,11.00
2018-09-10T06:48:39.447Z,10.10
2018-09-10T06:51:08.192Z,11.07
2018-09-10T06:53:36.936Z,11.20
2018-09-10T06:56:06.140Z,10.50
2018-09-10T06:58:35.664Z,10.40
2018-09-10T07:01:04.426Z,10.37
2018-09-10T07:03:33.162Z,10.23
2018-09-10T07:06:01.948Z,10.83
2018-09-10T07:08:30.730Z,11.03
2018-09-10T07:10:59.393Z,11.23
2018-09-10T07:13:28.128Z,11.03
2018-09-10T07:15:56.913Z,10.43
2018-09-10T07:18:25.649Z,10.33
2018-09-10T07:20:54.343Z,10.17
2018-09-10T07:23:23.038Z,9.77
2018-09-10T07:25:51.779Z,10.63
2018-09-10T07:28:20.560Z,10.90
2018-09-10T07:30:49.288Z,10.60
2018-09-10T07:33:17.974Z,11.03
2018-09-10T07:35:46.706Z,10.63
2018-09-10T07:38:16.175Z,10.47
2018-09-10T07:40:44.882Z,9.60
2018-09-10T07:43:13.564Z,10.57
2018-09-10T07:45:42.229Z,10.00
2018-09-10T07:48:10.922Z,10.30
2018-09-10T07:50:39.590Z,10.10
2018-09-10T07:53:08.291Z,10.57
2018-09-10T07:55:37.012Z,9.70
2018-09-10T07:58:05.972Z,10.17
2018-09-10T08:00:34.625Z,9.60
2018-09-10T08:03:03.323Z,10.70
2018-09-10T08:05:32.019Z,9.30
2018-09-10T08:08:00.791Z,9.53
2018-09-10T08:10:29.479Z,10.47
2018-09-10T08:12:58.167Z,9.00
2018-09-10T08:15:26.837Z,9.50
2018-09-10T08:17:55.558Z,9.63
2018-09-10T08:20:24.273Z,10.00
2018-09-10T08:22:52.965Z,10.47
2018-09-10T08:25:21.629Z,10.17
2018-09-10T08:27:50.333Z,8.70
2018-09-10T08:30:19.046Z,9.53
2018-09-10T08:32:47.692Z,9.17
2018-09-10T08:35:16.456Z,9.23
2018-09-10T08:37:45.212Z,9.07
2018-09-10T08:40:13.878Z,8.83
2018-09-10T08:42:42.632Z,8.77
2018-09-10T08:45:11.376Z,8.57
2018-09-10T08:47:40.060Z,8.33
2018-09-10T08:50:09.422Z,8.37
2018-09-10T08:52:38.315Z,7.97
2018-09-10T08:55:07.094Z,7.87
2018-09-10T08:57:35.719Z,8.13
2018-09-10T09:00:06.113Z,7.27
2018-09-10T09:02:34.825Z,7.83
2018-09-10T09:05:03.550Z,8.30
2018-09-10T09:07:32.303Z,7.77
2018-09-10T09:10:00.956Z,8.17
2018-09-10T09:12:29.620Z,7.53
2018-09-10T09:14:58.294Z,8.43
2018-09-10T09:17:27.006Z,8.33
2018-09-10T09:19:56.109Z,8.77
2018-09-10T09:22:24.827Z,7.80
2018-09-10T09:24:53.438Z,8.27
2018-09-10T09:28:24.030Z,8.03
2018-09-10T09:30:52.678Z,7.50
2018-09-10T09:33:21.432Z,7.73
2018-09-10T09:35:55.428Z,7.60
2018-09-10T09:38:29.405Z,7.50
2018-09-10T09:41:03.260Z,7.63
2018-09-10T09:43:37.233Z,7.87
2018-09-10T09:46:07.814Z,8.17
2018-09-10T09:48:36.551Z,7.80
2018-09-10T09:51:05.425Z,6.73
2018-09-10T09:53:34.619Z,7.77
2018-09-10T09:56:03.366Z,7.80
2018-09-10T09:58:32.147Z,7.20
2018-09-10T10:01:06.130Z,7.40
2018-09-10T10:03:40.060Z,7.20
2018-09-10T10:06:08.705Z,7.17
2018-09-10T10:08:37.388Z,7.60
2018-09-10T10:11:06.224Z,7.30
2018-09-10T10:13:34.933Z,7.20
2018-09-10T10:16:03.640Z,7.03
2018-09-10T10:20:01.654Z,7.67
2018-09-10T10:22:30.308Z,7.53
2018-09-10T10:24:59.015Z,7.67
2018-09-10T10:27:27.850Z,8.07
2018-09-10T10:29:56.604Z,7.90
2018-09-10T10:32:25.286Z,7.40
2018-09-10T10:34:53.992Z,7.60
2018-09-10T10:37:22.645Z,6.53
2018-09-10T10:39:51.370Z,7.00
2018-09-10T10:42:20.041Z,6.93
2018-09-10T10:44:48.710Z,6.70
2018-09-10T10:47:17.455Z,7.50
2018-09-10T10:49:47.500Z,7.47
2018-09-10T10:52:16.247Z,6.90
2018-09-10T10:54:44.975Z,7.43
2018-09-10T10:57:13.705Z,7.30
2018-09-10T10:59:42.436Z,7.27
2018-09-10T11:02:11.134Z,7.00
2018-09-10T11:04:39.889Z,7.30
2018-09-10T11:07:08.537Z,8.27
2018-09-10T11:09:37.211Z,8.05
2018-09-10T11:12:05.876Z,7.67
2018-09-10T11:14:34.527Z,7.28
2018-09-10T11:17:03.192Z,7.03
2018-09-10T11:19:31.908Z,7.05
2018-09-10T11:22:00.603Z,6.40
2018-09-10T11:24:29.287Z,7.22
2018-09-10T11:26:58.139Z,7.58
2018-09-10T11:29:26.840Z,7.60
2018-09-10T11:31:55.519Z,6.92
2018-09-10T11:34:24.194Z,7.08
2018-09-10T11:36:52.886Z,6.92
2018-09-10T11:39:21.558Z,6.78
2018-09-10T11:41:50.264Z,6.90
2018-09-10T11:44:18.982Z,7.08
2018-09-10T11:46:47.673Z,6.67
2018-09-10T11:49:16.316Z,6.37
2018-09-10T11:51:45.102Z,6.78
2018-09-10T11:54:13.790Z,6.70
2018-09-10T11:56:42.479Z,7.25
2018-09-10T11:59:11.151Z,7.28
2018-09-10T12:01:39.901Z,6.90
2018-09-10T12:04:08.533Z,7.15
2018-09-10T12:06:37.287Z,6.45
2018-09-10T12:09:07.456Z,6.78
2018-09-10T12:11:36.218Z,7.03
2018-09-10T12:14:04.894Z,6.12
2018-09-10T12:16:33.583Z,6.37
2018-09-10T12:19:02.270Z,6.75
2018-09-10T12:21:30.993Z,6.62
2018-09-10T12:23:59.717Z,6.17
2018-09-10T12:26:28.442Z,6.33
2018-09-10T12:28:57.136Z,6.22
2018-09-10T12:31:25.901Z,7.22
2018-09-10T12:33:54.604Z,6.67
2018-09-10T12:36:23.308Z,6.85
2018-09-10T12:38:52.035Z,5.65
2018-09-10T12:41:20.713Z,6.87
2018-09-10T12:43:49.366Z,6.58
2018-09-10T12:46:18.069Z,5.78
2018-09-10T12:48:47.121Z,6.12
2018-09-10T12:51:15.805Z,6.60
2018-09-10T12:53:44.479Z,6.55
2018-09-10T12:56:13.136Z,6.03
2018-09-10T12:58:41.797Z,6.20
2018-09-10T13:01:10.479Z,5.65
2018-09-10T13:03:39.247Z,6.42
2018-09-10T13:06:07.986Z,6.00
2018-09-10T13:08:36.683Z,6.03
2018-09-10T13:11:05.326Z,5.78
2018-09-10T13:14:37.178Z,6.00
2018-09-10T13:17:05.864Z,6.30
2018-09-10T13:19:34.527Z,6.17
2018-09-10T13:22:03.222Z,6.25
2018-09-10T13:24:31.918Z,6.40
2018-09-10T13:27:00.616Z,6.08
2018-09-10T13:29:29.255Z,5.97
2018-09-10T13:31:57.922Z,6.65
2018-09-10T13:34:26.666Z,6.67
2018-09-10T13:36:55.390Z,5.53
2018-09-10T13:39:24.146Z,6.25
2018-09-10T13:41:52.852Z,5.62
2018-09-10T13:44:21.503Z,6.05
2018-09-10T13:46:50.170Z,5.97
2018-09-10T13:49:18.901Z,5.85
2018-09-10T13:51:47.567Z,6.10
2018-09-10T13:54:16.399Z,6.12
2018-09-10T13:56:45.075Z,6.05
2018-09-10T13:59:13.749Z,5.87
2018-09-10T14:01:42.487Z,5.87
2018-09-10T14:04:11.196Z,5.53
2018-09-10T14:06:39.943Z,5.92
2018-09-10T14:09:08.894Z,5.67
2018-09-10T14:11:38.500Z,6.08
2018-09-10T14:14:07.712Z,6.22
2018-09-10T14:16:36.387Z,6.05
2018-09-10T14:19:05.491Z,5.65
2018-09-10T14:21:34.191Z,5.70
2018-09-10T14:24:02.874Z,5.65
2018-09-10T14:26:31.589Z,5.97
2018-09-10T14:29:00.251Z,6.25
2018-09-10T14:31:29.048Z,5.67
2018-09-10T14:33:57.723Z,5.75
2018-09-10T14:36:26.432Z,5.37
2018-09-10T14:38:55.094Z,5.78
2018-09-10T14:41:23.781Z,5.85
2018-09-10T14:43:52.458Z,5.37
2018-09-10T14:46:21.126Z,5.35
2018-09-10T14:48:49.830Z,5.70
2018-09-10T14:51:18.508Z,5.90
2018-09-10T14:53:47.245Z,5.85
2018-09-10T14:56:15.906Z,5.78
2018-09-10T14:58:44.591Z,5.62
2018-09-10T15:01:13.239Z,5.12
2018-09-10T15:03:41.957Z,5.33
2018-09-10T15:06:10.640Z,5.37
2018-09-10T15:08:39.310Z,5.97
2018-09-10T15:11:08.033Z,5.35
2018-09-10T15:13:36.720Z,5.83
2018-09-10T15:16:05.416Z,7.75
2018-09-10T15:18:34.168Z,6.45
2018-09-10T15:21:02.800Z,5.60
2018-09-10T15:23:31.558Z,5.83
2018-09-10T15:26:00.311Z,6.00
2018-09-10T15:28:29.014Z,5.87
2018-09-10T15:30:57.758Z,6.17
2018-09-10T15:33:27.661Z,5.70
2018-09-10T15:35:56.428Z,5.63
2018-09-10T15:38:25.089Z,5.80
2018-09-10T15:40:53.782Z,5.40
2018-09-10T15:43:22.487Z,5.40
2018-09-10T15:45:51.251Z,5.80
2018-09-10T15:48:19.969Z,6.00
2018-09-10T15:50:48.661Z,5.93
2018-09-10T15:53:17.378Z,5.87
2018-09-10T15:55:46.047Z,6.23
2018-09-10T15:58:14.754Z,6.17
2018-09-10T16:00:43.495Z,6.00
2018-09-10T16:03:12.209Z,6.17
2018-09-10T16:05:40.848Z,5.40
2018-09-10T16:08:09.566Z,6.17
2018-09-10T16:10:38.205Z,6.13
2018-09-10T16:13:06.934Z,6.70
2018-09-10T16:15:35.659Z,6.40
2018-09-10T16:18:04.319Z,5.97
2018-09-10T16:20:33.025Z,6.40
2018-09-10T16:23:01.683Z,6.30
2018-09-10T16:25:30.506Z,6.83
2018-09-10T16:27:59.198Z,6.10
2018-09-10T16:30:27.943Z,6.80
2018-09-10T16:32:56.714Z,6.53
2018-09-10T16:35:25.434Z,6.50
2018-09-10T16:37:54.154Z,6.53
2018-09-10T16:40:22.846Z,6.00
2018-09-10T16:42:51.559Z,6.70
2018-09-10T16:45:20.447Z,5.97
2018-09-10T16:47:49.172Z,6.47
2018-09-10T16:50:17.893Z,6.07
2018-09-10T16:52:46.529Z,6.40
2018-09-10T16:55:15.282Z,6.40
2018-09-10T16:57:44.953Z,6.20
2018-09-10T17:00:15.222Z,6.37
2018-09-10T17:02:43.960Z,6.50
2018-09-10T17:05:12.680Z,6.60
2018-09-10T17:07:41.490Z,6.40
2018-09-10T17:10:10.300Z,6.77
2018-09-10T17:12:39.096Z,6.20
2018-09-10T17:15:07.916Z,6.10
2018-09-10T17:17:36.646Z,6.90
2018-09-10T17:20:05.698Z,6.33
2018-09-10T17:22:34.591Z,6.20
2018-09-10T17:25:03.274Z,6.97
2018-09-10T17:27:31.948Z,6.73
2018-09-10T17:30:00.745Z,6.90
2018-09-10T17:32:29.471Z,6.73
2018-09-10T17:34:58.241Z,6.57
2018-09-10T17:37:26.963Z,6.97
2018-09-10T17:39:55.732Z,6.60
2018-09-10T17:42:24.456Z,8.10
2018-09-10T17:44:53.165Z,7.17
2018-09-10T17:47:21.880Z,6.63
2018-09-10T17:49:50.687Z,7.37
2018-09-10T17:52:19.445Z,7.20
2018-09-10T17:54:48.169Z,7.17
2018-09-10T17:57:16.867Z,7.13
2018-09-10T17:59:45.655Z,6.60
2018-09-10T18:02:14.336Z,6.77
2018-09-10T18:04:42.996Z,6.83
2018-09-10T18:07:11.654Z,7.17
2018-09-10T18:09:43.554Z,7.57
2018-09-10T18:12:12.330Z,7.63
2018-09-10T18:14:41.166Z,7.47
2018-09-10T18:17:09.994Z,6.90
2018-09-10T18:19:39.018Z,7.40
2018-09-10T18:22:07.759Z,7.13
2018-09-10T18:24:36.502Z,7.50
2018-09-10T18:27:05.178Z,7.97
2018-09-10T18:29:33.871Z,7.43
2018-09-10T18:32:02.621Z,7.10
2018-09-10T18:34:31.327Z,7.50
2018-09-10T18:37:00.092Z,7.00
2018-09-10T18:39:28.824Z,7.27
2018-09-10T18:41:57.517Z,7.97
2018-09-10T18:44:26.254Z,7.80
2018-09-10T18:46:54.904Z,7.93
2018-09-10T18:49:23.627Z,7.57
2018-09-10T18:51:52.574Z,7.87
2018-09-10T18:54:21.324Z,7.93
2018-09-10T18:56:50.010Z,8.20
2018-09-10T18:59:18.678Z,7.83
2018-09-10T19:01:47.374Z,7.77
2018-09-10T19:04:16.264Z,7.47
2018-09-10T19:06:44.963Z,7.50
2018-09-10T19:09:13.697Z,7.80
2018-09-10T19:11:42.457Z,7.93
2018-09-10T19:14:11.146Z,8.03
2018-09-10T19:16:39.878Z,8.50
2018-09-10T19:19:08.669Z,8.37
2018-09-10T19:21:37.369Z,7.63
2018-09-10T19:24:06.024Z,8.00
2018-09-10T19:26:34.816Z,8.20
2018-09-10T19:29:03.546Z,7.73
2018-09-10T19:31:32.541Z,7.70
2018-09-10T19:34:01.212Z,7.97
2018-09-10T19:36:29.966Z,12.37
2018-09-10T19:38:58.654Z,8.57
2018-09-10T19:41:27.300Z,8.70
2018-09-10T19:43:56.017Z,8.47
2018-09-10T19:46:24.806Z,8.83
2018-09-10T19:48:53.536Z,8.53
2018-09-10T19:51:24.974Z,7.97
2018-09-10T19:53:55.616Z,8.20
2018-09-10T19:56:24.990Z,8.50
2018-09-10T19:58:53.724Z,8.63
2018-09-10T20:01:22.499Z,8.47
2018-09-10T20:03:51.123Z,8.20
2018-09-10T20:06:19.839Z,8.60
2018-09-10T20:08:48.539Z,8.40
2018-09-10T20:11:17.184Z,8.33
2018-09-10T20:13:45.979Z,8.23
2018-09-10T20:16:14.789Z,8.57
2018-09-10T20:18:43.579Z,8.90
2018-09-10T20:21:12.296Z,8.47
2018-09-10T20:23:41.265Z,8.47
2018-09-10T20:26:10.021Z,9.50
2018-09-10T20:28:38.739Z,9.73
2018-09-10T20:31:07.558Z,10.03
2018-09-10T20:33:41.230Z,9.27
2018-09-10T20:36:09.910Z,8.63
2018-09-10T20:38:38.609Z,8.87
2018-09-10T20:41:07.385Z,8.50
2018-09-10T20:43:36.208Z,8.43
2018-09-10T20:46:04.898Z,8.17
2018-09-10T20:48:33.694Z,9.20
2018-09-10T20:51:02.357Z,9.50
2018-09-10T20:53:31.005Z,9.20
2018-09-10T20:55:59.637Z,9.07
2018-09-10T20:58:28.362Z,9.03
2018-09-10T21:00:57.106Z,9.47
2018-09-10T21:03:25.805Z,9.10
2018-09-10T21:05:54.474Z,8.80
2018-09-10T21:08:23.117Z,9.10
2018-09-10T21:10:51.769Z,8.60
2018-09-10T21:13:20.457Z,8.63
2018-09-10T21:15:49.096Z,8.33
2018-09-10T21:18:17.815Z,8.80
2018-09-10T21:20:46.493Z,8.87
2018-09-10T21:23:15.155Z,8.63
2018-09-10T21:25:43.841Z,8.70
2018-09-10T21:28:12.470Z,8.97
2018-09-10T21:30:41.114Z,8.43
2018-09-10T21:33:09.882Z,9.03
2018-09-10T21:35:38.639Z,8.90
2018-09-10T21:38:07.604Z,8.27
2018-09-10T21:40:36.263Z,8.37
2018-09-10T21:43:05.314Z,8.17
2018-09-10T21:45:34.043Z,8.47
2018-09-10T21:48:02.708Z,8.13
2018-09-10T21:50:31.367Z,8.40
2018-09-10T21:53:00.047Z,8.70
2018-09-10T21:55:28.726Z,8.90
2018-09-10T21:57:57.421Z,8.83
2018-09-10T22:00:26.215Z,8.17
2018-09-10T22:02:55.072Z,8.07
2018-09-10T22:05:23.891Z,8.23
2018-09-10T22:07:52.755Z,8.10
2018-09-10T22:10:21.624Z,7.73
2018-09-10T22:12:50.427Z,7.80
2018-09-10T22:15:19.149Z,7.67
2018-09-10T22:17:48.038Z,7.73
2018-09-10T22:20:16.782Z,7.47
2018-09-10T22:22:45.514Z,7.40
2018-09-10T22:25:14.175Z,8.03
2018-09-10T22:27:42.811Z,7.93
2018-09-10T22:30:11.659Z,7.53
2018-09-10T22:32:40.378Z,7.73
2018-09-10T22:35:09.054Z,7.67
2018-09-10T22:37:37.718Z,7.33
2018-09-10T22:40:06.419Z,7.57
2018-09-10T22:42:35.068Z,7.00
2018-09-10T22:45:03.811Z,6.67
2018-09-10T22:47:32.478Z,6.77
2018-09-10T22:50:01.150Z,7.20
2018-09-10T22:52:29.764Z,6.73
2018-09-10T22:54:58.524Z,7.37
2018-09-10T22:57:27.262Z,7.40
2018-09-10T22:59:55.927Z,7.50
2018-09-10T23:02:24.606Z,6.50
2018-09-10T23:04:53.328Z,7.47
2018-09-10T23:07:21.988Z,6.70
2018-09-10T23:09:50.739Z,7.40
2018-09-10T23:12:19.564Z,7.70
2018-09-10T23:14:48.388Z,7.50
2018-09-10T23:17:17.205Z,7.27
2018-09-10T23:19:45.881Z,7.90
2018-09-10T23:22:14.523Z,7.30
2018-09-10T23:24:43.278Z,7.17
2018-09-10T23:27:11.963Z,7.53
2018-09-10T23:29:40.743Z,7.00
2018-09-10T23:32:09.699Z,7.10
2018-09-10T23:34:38.441Z,7.00
2018-09-10T23:37:07.103Z,6.87
2018-09-10T23:39:35.828Z,6.60
2018-09-10T23:42:04.524Z,6.73
2018-09-10T23:44:33.210Z,7.00
2018-09-10T23:47:01.872Z,6.80
2018-09-10T23:49:30.631Z,6.97
2018-09-10T23:51:59.375Z,6.80
2018-09-10T23:54:28.164Z,7.40
2018-09-10T23:56:56.863Z,7.27
2018-09-10T23:59:25.560Z,6.57
